Airfield :
LOGIN :

Register | Disclaimer

   EN    FR    IT 

 










Legend :    VFR   Marginal VFR   IFR   Intensive IFR   Very Intensive IFR
Visi :
Ceiling :
>= 8 km
>= 3000ft
5 to 8 km
1000 to 3000 ft
1500m to 5 km
500 to 1000 ft
800 to 1500m
200 to 500 ft
< 800m
< 200 ft
Symbols :   Thunderstorms  Fog  Heavy snow  Heavy precipitations  Wind > 20 kt
SIGMETs :     Misc.  Thunderstorms  Icing  Turbulence  Mountain Waves  Volcanic Ashes






- Airport Elevation : 697 ft
- IATA code : PEG


LIRZ - San Edigio Perugia

CURRENT METAR :
  • 241150Z AUTO 18008KT 9999 FEW036/// BKN059/// 12/05 Q1009

EXPIRED METARs :
  • 241120Z AUTO 18010KT 9999 FEW033/// BKN070/// 12/05 Q1009
  • 241050Z AUTO 19010KT 9999 FEW028/// 12/06 Q1010
  • 241020Z AUTO 20009KT 9999 SCT027/// 12/06 Q1010
  • 240950Z AUTO 23005KT 190V280 9999 SCT025/// 11/08 Q1010
  • 240920Z AUTO 16004KT 9999 FEW026/// 11/07 Q1009
  • 240850Z AUTO 19003KT 120V250 9999 NCD 09/08 Q1009
  • 240820Z AUTO 13004KT 9999 NCD 07/07 Q1009
  • 240750Z AUTO VRB02KT 9999 NCD 07/07 Q1009
  • 240720Z AUTO 26004KT 9999 BKN044/// 04/04 Q1009

TAF TAF LIRZ
Valid from the 24 at 12:00 until the 25 at 12:00 UTC


241100Z 2412/2512 20013KT 9999 SCT040
TEMPO 2412/2418 TSRA
BECMG 2418/2420 VRB05KT
TEMPO 2502/2507 3000 BCFG



MET'MAP, your aeronautical weather chart ! - Copyright ORBIFLY December 2007 - Disclaimer

ORBIFLY MET'MAP TEAM :

Programming & Development : Alexandra Zaïnal
Original concept : Baudouin d'Aumeries
Technical & hardware support : Manuel Goepfert
Assistance : Marc-Olivier Méhu




SOURCES & CREDITS :

   NOAA